createdAt,value
2022-10-17T00:00:34.569Z,10.62
2022-10-17T00:03:03.171Z,10.76
2022-10-17T00:05:32.509Z,10.67
2022-10-17T00:08:00.551Z,10.66
2022-10-17T00:10:28.587Z,10.61
2022-10-17T00:12:56.599Z,10.69
2022-10-17T00:15:24.540Z,10.66
2022-10-17T00:17:52.610Z,10.57
2022-10-17T00:20:20.852Z,10.62
2022-10-17T00:22:50.273Z,10.62
2022-10-17T00:25:20.168Z,10.64
2022-10-17T00:27:48.201Z,10.56
2022-10-17T00:30:17.215Z,10.61
2022-10-17T00:32:45.267Z,10.52
2022-10-17T00:35:13.388Z,10.56
2022-10-17T00:37:41.399Z,10.64
2022-10-17T00:40:12.218Z,10.65
2022-10-17T00:42:40.245Z,10.64
2022-10-17T00:45:18.684Z,10.48
2022-10-17T00:47:50.351Z,10.45
2022-10-17T00:50:18.850Z,10.44
2022-10-17T00:52:47.266Z,10.43
2022-10-17T00:55:19.803Z,10.42
2022-10-17T00:57:48.130Z,9.99
2022-10-17T01:00:18.129Z,10.34
2022-10-17T01:02:46.716Z,10.35
2022-10-17T01:05:15.782Z,10.27
2022-10-17T01:07:44.469Z,10.14
2022-10-17T01:10:12.928Z,10.16
2022-10-17T01:12:53.166Z,10.12
2022-10-17T01:15:27.807Z,10.05
2022-10-17T01:18:04.946Z,9.99
2022-10-17T01:21:00.384Z,10.10
2022-10-17T01:24:05.579Z,10.13
2022-10-17T01:26:48.789Z,10.11
2022-10-17T01:29:34.810Z,10.26
2022-10-17T01:32:06.005Z,10.26
2022-10-17T01:34:37.128Z,10.18
2022-10-17T01:37:08.222Z,10.10
2022-10-17T01:39:45.333Z,10.26
2022-10-17T01:42:18.572Z,10.07
2022-10-17T01:44:49.734Z,10.04
2022-10-17T01:47:21.101Z,10.14
2022-10-17T01:49:51.207Z,10.00
2022-10-17T01:52:22.312Z,10.09
2022-10-17T01:54:52.652Z,10.08
2022-10-17T01:57:24.834Z,10.15
2022-10-17T01:59:57.836Z,10.15
2022-10-17T02:02:32.806Z,10.16
2022-10-17T02:05:05.388Z,10.16
2022-10-17T02:07:36.506Z,10.16
2022-10-17T02:10:14.496Z,10.10
2022-10-17T02:12:49.166Z,10.07
2022-10-17T02:15:36.002Z,10.12
2022-10-17T02:18:24.605Z,10.07
2022-10-17T02:20:55.733Z,9.69
2022-10-17T02:23:28.984Z,10.00
2022-10-17T02:26:05.334Z,9.72
2022-10-17T02:28:39.923Z,9.99
2022-10-17T02:31:10.392Z,9.98
2022-10-17T02:33:43.615Z,9.97
2022-10-17T02:36:17.928Z,9.51
2022-10-17T02:39:02.408Z,9.96
2022-10-17T02:41:31.701Z,9.96
2022-10-17T02:44:02.372Z,9.96
2022-10-17T02:46:31.945Z,9.93
2022-10-17T02:49:03.162Z,9.32
2022-10-17T02:51:36.401Z,9.93
2022-10-17T02:54:09.890Z,9.91
2022-10-17T02:56:42.457Z,9.88
2022-10-17T02:59:11.586Z,9.83
2022-10-17T03:01:39.885Z,9.72
2022-10-17T03:04:11.034Z,9.72
2022-10-17T03:06:39.145Z,9.77
2022-10-17T03:09:07.975Z,9.78
2022-10-17T03:11:35.954Z,9.74
2022-10-17T03:14:03.995Z,9.67
2022-10-17T03:16:31.998Z,9.71
2022-10-17T03:18:59.986Z,9.57
2022-10-17T03:21:29.346Z,9.63
2022-10-17T03:23:57.381Z,9.60
2022-10-17T03:26:25.511Z,9.58
2022-10-17T03:28:54.559Z,9.58
2022-10-17T03:31:23.261Z,9.58
2022-10-17T03:33:51.365Z,9.46
2022-10-17T03:36:20.352Z,9.56
2022-10-17T03:38:49.717Z,9.54
2022-10-17T03:41:17.789Z,9.54
2022-10-17T03:43:45.776Z,9.43
2022-10-17T03:46:13.931Z,9.36
2022-10-17T03:48:41.963Z,9.40
2022-10-17T03:51:10.698Z,9.32
2022-10-17T03:53:38.755Z,9.25
2022-10-17T03:56:15.920Z,9.27
2022-10-17T03:58:44.258Z,8.77
2022-10-17T04:01:13.589Z,9.31
2022-10-17T04:03:42.014Z,9.06
2022-10-17T04:06:12.781Z,9.32
2022-10-17T04:08:42.669Z,9.31
2022-10-17T04:11:12.690Z,9.26
2022-10-17T04:13:42.106Z,9.30
2022-10-17T04:16:12.843Z,9.22
2022-10-17T04:18:40.934Z,8.90
2022-10-17T04:21:09.532Z,9.16
2022-10-17T04:23:37.661Z,9.20
2022-10-17T04:26:06.828Z,9.21
2022-10-17T04:28:35.498Z,9.10
2022-10-17T04:31:06.639Z,9.21
2022-10-17T04:33:35.399Z,9.21
2022-10-17T04:36:05.418Z,9.20
2022-10-17T04:38:34.055Z,9.19
2022-10-17T04:41:03.379Z,9.17
2022-10-17T04:43:31.451Z,9.01
2022-10-17T04:45:59.532Z,8.92
2022-10-17T04:48:30.146Z,9.11
2022-10-17T04:50:59.228Z,9.08
2022-10-17T04:53:28.145Z,9.07
2022-10-17T04:55:56.178Z,8.74
2022-10-17T04:58:24.363Z,9.00
2022-10-17T05:00:52.524Z,7.51
2022-10-17T05:03:20.548Z,8.84
2022-10-17T05:05:49.984Z,8.95
2022-10-17T05:08:18.082Z,8.96
2022-10-17T05:10:47.668Z,8.97
2022-10-17T05:13:16.363Z,9.02
2022-10-17T05:15:44.386Z,9.02
2022-10-17T05:18:12.574Z,9.04
2022-10-17T05:20:40.641Z,9.03
2022-10-17T05:23:10.123Z,9.02
2022-10-17T05:25:38.140Z,9.01
2022-10-17T05:28:06.355Z,8.86
2022-10-17T05:30:37.478Z,8.98
2022-10-17T05:33:05.747Z,8.99
2022-10-17T05:35:33.875Z,9.03
2022-10-17T05:38:01.946Z,9.03
2022-10-17T05:40:31.366Z,8.98
2022-10-17T05:42:59.351Z,8.85
2022-10-17T05:45:27.548Z,8.83
2022-10-17T05:47:55.676Z,9.01
2022-10-17T05:50:25.227Z,9.02
2022-10-17T05:52:54.921Z,8.97
2022-10-17T05:55:22.948Z,9.10
2022-10-17T05:57:54.026Z,9.11
2022-10-17T06:00:22.916Z,9.32
2022-10-17T06:02:51.574Z,9.39
2022-10-17T06:05:21.225Z,9.37
2022-10-17T06:07:52.562Z,9.55
2022-10-17T06:10:20.788Z,9.58
2022-10-17T06:12:48.885Z,9.55
2022-10-17T06:15:18.548Z,9.69
2022-10-17T06:17:46.797Z,9.75
2022-10-17T06:20:15.206Z,9.74
2022-10-17T06:22:43.242Z,9.87
2022-10-17T06:25:12.005Z,9.94
2022-10-17T06:27:40.177Z,10.06
2022-10-17T06:30:20.384Z,10.04
2022-10-17T06:32:53.609Z,10.23
2022-10-17T06:35:23.770Z,10.34
2022-10-17T06:37:52.023Z,10.43
2022-10-17T06:40:20.371Z,10.00
2022-10-17T06:42:48.714Z,10.53
2022-10-17T06:45:18.721Z,10.64
2022-10-17T06:47:49.394Z,10.81
2022-10-17T06:50:18.941Z,10.78
2022-10-17T06:52:47.509Z,10.96
2022-10-17T06:55:19.964Z,10.57
2022-10-17T06:57:52.826Z,11.13
2022-10-17T07:00:21.484Z,11.27
2022-10-17T07:02:51.515Z,11.37
2022-10-17T07:05:20.620Z,11.52
2022-10-17T07:07:51.079Z,11.67
2022-10-17T07:10:21.621Z,11.82
2022-10-17T07:13:02.999Z,11.95
2022-10-17T07:15:32.486Z,12.08
2022-10-17T07:18:02.331Z,12.37
2022-10-17T07:20:33.828Z,12.35
2022-10-17T07:23:01.917Z,12.64
2022-10-17T07:25:30.085Z,12.67
2022-10-17T07:27:58.368Z,12.79
2022-10-17T07:30:26.680Z,12.94
2022-10-17T07:32:55.819Z,12.93
2022-10-17T07:35:25.380Z,12.92
2022-10-17T07:37:53.536Z,12.85
2022-10-17T07:40:21.691Z,12.87
2022-10-17T07:42:50.178Z,13.05
2022-10-17T07:45:18.662Z,12.99
2022-10-17T07:47:47.046Z,13.18
2022-10-17T07:50:15.608Z,12.92
2022-10-17T07:52:45.115Z,13.49
2022-10-17T07:55:13.425Z,13.61
2022-10-17T07:57:41.553Z,13.71
2022-10-17T08:00:11.838Z,13.90
2022-10-17T08:02:41.036Z,14.12
2022-10-17T08:05:10.352Z,14.15
2022-10-17T08:07:39.103Z,14.28
2022-10-17T08:12:37.740Z,14.73
2022-10-17T08:15:07.075Z,15.00
2022-10-17T08:17:35.823Z,15.22
2022-10-17T08:20:04.155Z,15.47
2022-10-17T08:22:32.432Z,15.78
2022-10-17T08:25:00.874Z,15.93
2022-10-17T08:27:30.527Z,16.32
2022-10-17T08:29:59.029Z,16.70
2022-10-17T08:32:29.488Z,17.52
2022-10-17T08:34:58.337Z,19.45
2022-10-17T08:37:26.879Z,21.93
2022-10-17T08:39:57.530Z,23.94
2022-10-17T08:42:39.775Z,24.90
2022-10-17T08:45:16.352Z,26.37
2022-10-17T08:47:47.163Z,26.29
2022-10-17T08:50:19.973Z,27.57
2022-10-17T08:52:51.502Z,27.84
2022-10-17T08:55:23.928Z,28.16
2022-10-17T08:57:53.490Z,27.26
2022-10-17T09:00:22.608Z,25.36
2022-10-17T09:02:59.988Z,24.15
2022-10-17T09:05:37.272Z,21.72
2022-10-17T09:08:17.050Z,21.39
2022-10-17T09:10:53.995Z,21.17
2022-10-17T09:13:32.341Z,20.64
2022-10-17T09:16:31.119Z,20.42
2022-10-17T09:19:04.661Z,20.46
2022-10-17T09:21:42.306Z,20.72
2022-10-17T09:24:16.039Z,21.54
2022-10-17T09:26:48.041Z,22.65
2022-10-17T09:29:21.633Z,23.77
2022-10-17T09:34:30.815Z,26.01
2022-10-17T09:37:00.534Z,27.48
2022-10-17T09:39:32.028Z,28.58
2022-10-17T09:42:02.166Z,29.37
2022-10-17T09:44:34.078Z,30.45
2022-10-17T09:47:20.561Z,31.12
2022-10-17T09:49:49.989Z,31.50
2022-10-17T09:52:19.892Z,31.02
2022-10-17T09:54:49.792Z,30.56
2022-10-17T09:57:19.382Z,30.69
2022-10-17T09:59:56.966Z,32.60
2022-10-17T10:02:27.533Z,33.53
2022-10-17T10:05:06.393Z,33.58
2022-10-17T10:07:37.872Z,33.41
2022-10-17T10:10:09.363Z,33.57
2022-10-17T10:12:39.783Z,34.25
2022-10-17T10:15:34.555Z,35.04
2022-10-17T10:18:02.803Z,35.41
2022-10-17T10:20:34.474Z,35.14
2022-10-17T10:23:13.643Z,34.87
2022-10-17T10:25:52.260Z,34.95
2022-10-17T10:28:21.501Z,35.32
2022-10-17T10:30:52.680Z,35.67
2022-10-17T10:33:21.715Z,34.42
2022-10-17T10:35:55.606Z,35.67
2022-10-17T10:38:24.213Z,35.69
2022-10-17T10:40:56.590Z,35.48
2022-10-17T10:43:31.151Z,35.70
2022-10-17T10:46:01.252Z,34.98
2022-10-17T10:48:33.352Z,34.42
2022-10-17T10:51:04.111Z,34.56
2022-10-17T10:53:38.386Z,34.67
2022-10-17T10:56:11.859Z,34.49
2022-10-17T10:58:45.060Z,33.77
2022-10-17T11:01:21.747Z,33.50
2022-10-17T11:03:59.755Z,32.82
2022-10-17T11:06:30.923Z,32.92
2022-10-17T11:09:11.122Z,32.89
2022-10-17T11:11:42.603Z,32.70
2022-10-17T11:14:14.590Z,31.59
2022-10-17T11:16:48.612Z,29.45
2022-10-17T11:19:22.105Z,28.34
2022-10-17T11:21:59.986Z,27.24
2022-10-17T11:24:32.814Z,26.56
2022-10-17T11:27:03.070Z,26.00
2022-10-17T11:29:33.570Z,25.78
2022-10-17T11:32:05.285Z,25.95
2022-10-17T11:34:36.531Z,26.97
2022-10-17T11:37:10.999Z,29.10
2022-10-17T11:42:16.589Z,27.70
2022-10-17T11:44:45.295Z,26.22
2022-10-17T11:47:26.497Z,25.42
2022-10-17T11:51:59.674Z,25.20
2022-10-17T11:52:57.084Z,24.98
2022-10-17T11:55:26.783Z,25.26
2022-10-17T11:58:07.154Z,25.00
2022-10-17T12:00:47.516Z,25.52
2022-10-17T12:03:46.866Z,25.35
2022-10-17T12:06:25.840Z,25.84
2022-10-17T12:09:02.087Z,25.35
2022-10-17T12:11:43.937Z,25.65
2022-10-17T12:14:36.818Z,25.80
2022-10-17T12:17:06.667Z,25.52
2022-10-17T12:19:37.531Z,25.45
2022-10-17T12:22:21.028Z,25.55
2022-10-17T12:24:57.661Z,26.10
2022-10-17T12:27:42.478Z,25.86
2022-10-17T12:30:19.906Z,26.38
2022-10-17T12:33:07.444Z,26.50
2022-10-17T12:35:39.105Z,25.57
2022-10-17T12:38:21.643Z,25.89
2022-10-17T12:40:54.821Z,25.18
2022-10-17T12:46:46.316Z,25.29
2022-10-17T12:49:39.361Z,25.28
2022-10-17T12:52:23.627Z,25.26
2022-10-17T12:55:12.526Z,25.33
2022-10-17T12:57:45.828Z,25.10
2022-10-17T13:00:22.249Z,25.26
2022-10-17T13:02:53.221Z,25.63
2022-10-17T13:05:29.160Z,25.78
2022-10-17T13:08:01.466Z,25.70
2022-10-17T13:10:32.584Z,25.76
2022-10-17T13:13:06.521Z,26.46
2022-10-17T13:15:35.158Z,27.28
2022-10-17T13:18:03.378Z,27.89
2022-10-17T13:20:32.924Z,28.65
2022-10-17T13:23:02.711Z,28.81
2022-10-17T13:25:31.063Z,29.51
2022-10-17T13:28:08.561Z,29.80
2022-10-17T13:30:38.143Z,30.74
2022-10-17T13:33:20.578Z,30.70
2022-10-17T13:35:59.982Z,31.28
2022-10-17T13:38:35.636Z,30.67
2022-10-17T13:41:34.291Z,30.83
2022-10-17T13:44:01.005Z,30.65
2022-10-17T13:46:39.819Z,30.52
2022-10-17T13:49:23.307Z,31.15
2022-10-17T13:51:55.370Z,30.23
2022-10-17T13:54:40.525Z,29.42
2022-10-17T13:57:19.291Z,29.37
2022-10-17T13:59:49.135Z,29.34
2022-10-17T14:02:19.257Z,29.44
2022-10-17T14:05:15.565Z,29.13
2022-10-17T14:08:05.858Z,29.43
2022-10-17T14:10:32.336Z,30.32
2022-10-17T14:13:01.836Z,30.50
2022-10-17T14:15:32.426Z,30.31
2022-10-17T14:18:05.435Z,30.34
2022-10-17T14:23:34.327Z,30.67
2022-10-17T14:26:09.285Z,30.77
2022-10-17T14:28:37.880Z,31.22
2022-10-17T14:31:22.954Z,30.57
2022-10-17T14:33:56.295Z,29.97
2022-10-17T14:36:38.840Z,29.73
2022-10-17T14:39:13.326Z,29.77
2022-10-17T14:41:45.935Z,29.93
2022-10-17T14:44:21.723Z,29.95
2022-10-17T14:46:53.985Z,30.02
2022-10-17T14:49:27.307Z,29.98
2022-10-17T14:52:22.076Z,28.89
2022-10-17T14:54:51.224Z,28.39
2022-10-17T14:57:25.550Z,27.81
2022-10-17T14:59:55.634Z,26.81
2022-10-17T15:02:26.201Z,26.53
2022-10-17T15:04:56.354Z,25.51
2022-10-17T15:07:25.772Z,25.06
2022-10-17T15:09:54.934Z,24.56
2022-10-17T15:12:26.802Z,24.04
2022-10-17T15:14:55.752Z,23.08
2022-10-17T15:17:27.103Z,22.29
2022-10-17T15:19:55.646Z,21.65
2022-10-17T15:22:24.563Z,21.39
2022-10-17T15:24:53.028Z,20.82
2022-10-17T15:27:26.379Z,20.70
2022-10-17T15:29:54.780Z,20.38
2022-10-17T15:32:23.550Z,20.20
2022-10-17T15:34:52.351Z,19.76
2022-10-17T15:37:23.014Z,19.58
2022-10-17T15:39:54.714Z,19.51
2022-10-17T15:42:30.608Z,19.02
2022-10-17T15:44:59.383Z,19.01
2022-10-17T15:47:31.477Z,18.68
2022-10-17T15:50:01.645Z,18.53
2022-10-17T15:52:31.003Z,18.57
2022-10-17T15:55:02.547Z,18.39
2022-10-17T15:57:39.563Z,18.27
2022-10-17T16:00:16.340Z,18.09
2022-10-17T16:02:46.004Z,18.16
2022-10-17T16:05:17.795Z,18.09
2022-10-17T16:07:47.929Z,17.99
2022-10-17T16:10:16.545Z,17.72
2022-10-17T16:12:50.486Z,17.64
2022-10-17T16:15:22.600Z,17.35
2022-10-17T16:17:51.624Z,17.04
2022-10-17T16:20:20.924Z,17.28
2022-10-17T16:22:49.752Z,17.39
2022-10-17T16:25:20.555Z,17.11
2022-10-17T16:27:53.972Z,17.15
2022-10-17T16:30:23.769Z,17.19
2022-10-17T16:32:54.684Z,16.97
2022-10-17T16:35:25.350Z,16.63
2022-10-17T16:37:53.815Z,16.92
2022-10-17T16:40:22.438Z,16.62
2022-10-17T16:42:52.463Z,16.74
2022-10-17T16:45:22.945Z,16.80
2022-10-17T16:47:53.104Z,16.75
2022-10-17T16:50:22.119Z,16.20
2022-10-17T16:52:50.616Z,16.52
2022-10-17T16:55:20.804Z,16.44
2022-10-17T16:57:49.956Z,16.44
2022-10-17T17:00:19.518Z,16.38
2022-10-17T17:02:49.980Z,15.83
2022-10-17T17:05:20.225Z,16.21
2022-10-17T17:07:49.553Z,16.03
2022-10-17T17:10:18.084Z,15.91
2022-10-17T17:12:46.455Z,16.03
2022-10-17T17:15:15.066Z,16.00
2022-10-17T17:17:50.551Z,15.89
2022-10-17T17:20:20.323Z,15.84
2022-10-17T17:22:51.019Z,15.85
2022-10-17T17:25:19.930Z,15.78
2022-10-17T17:27:50.288Z,15.79
2022-10-17T17:30:19.846Z,15.75
2022-10-17T17:32:50.451Z,15.75
2022-10-17T17:35:19.507Z,15.53
2022-10-17T17:37:48.162Z,15.64
2022-10-17T17:40:18.391Z,15.62
2022-10-17T17:42:47.203Z,15.56
2022-10-17T17:45:16.509Z,15.46
2022-10-17T17:47:45.545Z,15.35
2022-10-17T17:50:20.420Z,15.45
2022-10-17T17:52:51.627Z,15.39
2022-10-17T17:55:20.632Z,15.26
2022-10-17T17:57:49.426Z,15.17
2022-10-17T18:00:17.862Z,15.07
2022-10-17T18:02:48.204Z,15.14
2022-10-17T18:05:19.186Z,14.95
2022-10-17T18:07:48.615Z,15.04
2022-10-17T18:10:18.009Z,14.91
2022-10-17T18:12:47.347Z,15.00
2022-10-17T18:15:16.154Z,14.81
2022-10-17T18:17:45.205Z,14.84
2022-10-17T18:20:14.546Z,14.87
2022-10-17T18:22:44.728Z,14.68
2022-10-17T18:25:13.356Z,14.78
2022-10-17T18:27:42.471Z,14.33
2022-10-17T18:30:12.344Z,14.66
2022-10-17T18:32:41.270Z,13.88
2022-10-17T18:35:11.043Z,14.59
2022-10-17T18:40:11.931Z,14.41
2022-10-17T18:42:43.455Z,14.37
2022-10-17T18:45:12.728Z,14.44
2022-10-17T18:47:45.483Z,14.29
2022-10-17T18:50:13.849Z,14.37
2022-10-17T18:52:43.185Z,14.14
2022-10-17T18:55:13.359Z,14.29
2022-10-17T18:57:41.844Z,13.94
2022-10-17T19:00:12.700Z,13.97
2022-10-17T19:02:41.872Z,14.10
2022-10-17T19:05:11.312Z,14.05
2022-10-17T19:07:40.352Z,14.01
2022-10-17T19:10:09.690Z,13.93
2022-10-17T19:12:39.610Z,13.98
2022-10-17T19:15:09.488Z,13.95
2022-10-17T19:17:38.211Z,13.16
2022-10-17T19:20:08.395Z,13.83
2022-10-17T19:22:36.746Z,13.70
2022-10-17T19:25:06.171Z,13.76
2022-10-17T19:27:35.277Z,13.79
2022-10-17T19:30:06.525Z,13.77
2022-10-17T19:32:36.901Z,13.69
2022-10-17T19:35:06.678Z,13.67
2022-10-17T19:37:35.603Z,13.67
2022-10-17T19:40:04.461Z,13.60
2022-10-17T19:42:35.340Z,13.64
2022-10-17T19:45:06.000Z,13.26
2022-10-17T19:47:35.559Z,13.32
2022-10-17T19:50:04.945Z,13.58
2022-10-17T19:52:34.052Z,13.37
2022-10-17T19:55:03.093Z,13.42
2022-10-17T19:57:32.051Z,13.35
2022-10-17T20:00:01.197Z,13.40
2022-10-17T20:02:32.359Z,13.24
2022-10-17T20:05:17.599Z,13.08
2022-10-17T20:07:47.362Z,12.97
2022-10-17T20:10:16.596Z,13.02
2022-10-17T20:12:45.578Z,13.16
2022-10-17T20:15:15.159Z,13.16
2022-10-17T20:17:45.659Z,13.16
2022-10-17T20:20:14.527Z,12.89
2022-10-17T20:22:44.393Z,13.16
2022-10-17T20:25:13.479Z,13.06
2022-10-17T20:27:42.372Z,12.99
2022-10-17T20:30:12.218Z,12.98
2022-10-17T20:32:41.148Z,12.29
2022-10-17T20:35:12.171Z,12.86
2022-10-17T20:37:42.728Z,12.87
2022-10-17T20:43:02.645Z,12.79
2022-10-17T20:45:44.245Z,12.65
2022-10-17T20:48:20.513Z,12.78
2022-10-17T20:50:51.154Z,12.71
2022-10-17T20:53:37.325Z,12.07
2022-10-17T20:56:13.327Z,12.72
2022-10-17T20:58:42.223Z,12.68
2022-10-17T21:01:12.024Z,12.53
2022-10-17T21:03:44.024Z,12.45
2022-10-17T21:06:17.061Z,12.58
2022-10-17T21:08:46.232Z,12.55
2022-10-17T21:11:17.382Z,12.53
2022-10-17T21:13:47.261Z,12.51
2022-10-17T21:16:17.588Z,12.26
2022-10-17T21:18:46.355Z,12.29
2022-10-17T21:21:18.648Z,12.19
2022-10-17T21:23:49.043Z,12.16
2022-10-17T21:26:18.280Z,12.16
2022-10-17T21:28:48.086Z,12.03
2022-10-17T21:31:19.767Z,11.77
2022-10-17T21:33:49.861Z,12.21
2022-10-17T21:36:20.414Z,12.08
2022-10-17T21:38:51.151Z,12.12
2022-10-17T21:41:21.962Z,12.11
2022-10-17T21:43:53.991Z,12.02
2022-10-17T21:46:25.506Z,12.08
2022-10-17T21:48:54.671Z,11.85
2022-10-17T21:51:26.085Z,12.02
2022-10-17T21:53:56.189Z,11.93
2022-10-17T21:56:29.095Z,11.92
2022-10-17T21:58:58.331Z,12.00
2022-10-17T22:01:28.537Z,11.99
2022-10-17T22:03:58.774Z,11.94
2022-10-17T22:06:47.087Z,11.69
2022-10-17T22:09:19.609Z,11.76
2022-10-17T22:11:49.981Z,11.86
2022-10-17T22:14:21.057Z,11.70
2022-10-17T22:16:50.596Z,11.68
2022-10-17T22:19:27.379Z,11.78
2022-10-17T22:21:57.776Z,11.68
2022-10-17T22:24:26.412Z,11.71
2022-10-17T22:26:55.112Z,11.69
2022-10-17T22:29:24.230Z,11.65
2022-10-17T22:31:52.609Z,11.34
2022-10-17T22:34:21.141Z,11.42
2022-10-17T22:36:49.965Z,11.54
2022-10-17T22:39:20.262Z,11.20
2022-10-17T22:41:48.896Z,11.56
2022-10-17T22:44:17.788Z,11.46
2022-10-17T22:46:46.473Z,11.56
2022-10-17T22:49:15.599Z,11.53
2022-10-17T22:51:44.492Z,11.34
2022-10-17T22:54:13.662Z,11.26
2022-10-17T22:56:43.595Z,11.35
2022-10-17T22:59:12.608Z,11.28
2022-10-17T23:01:41.400Z,10.91
2022-10-17T23:04:10.186Z,11.11
2022-10-17T23:06:38.819Z,11.24
2022-10-17T23:09:07.657Z,11.18
2022-10-17T23:11:36.610Z,11.30
2022-10-17T23:14:06.924Z,11.26
2022-10-17T23:16:35.239Z,11.03
2022-10-17T23:19:03.984Z,11.19
2022-10-17T23:21:32.786Z,11.19
2022-10-17T23:24:01.647Z,11.22
2022-10-17T23:26:30.443Z,10.63
2022-10-17T23:28:59.197Z,11.11
2022-10-17T23:31:29.523Z,10.81
2022-10-17T23:33:58.285Z,11.06
2022-10-17T23:36:27.277Z,11.07
2022-10-17T23:38:58.457Z,10.99
2022-10-17T23:41:27.163Z,10.88
2022-10-17T23:43:55.619Z,11.01
2022-10-17T23:46:24.155Z,11.01
2022-10-17T23:48:54.177Z,10.86
2022-10-17T23:51:22.775Z,10.96
2022-10-17T23:53:51.536Z,10.80
2022-10-17T23:56:20.788Z,10.83
2022-10-17T23:58:49.702Z,10.88
